Time;durP1;ratioP1;P1;durP2;ratioP2;P2;SDS_P1;SDS_P2;PMS_P1;PMS_P2;Temp;Humidity;BMP_temperature;BMP_pressure;BME280_temperature;BME280_humidity;BME280_pressure;Samples;Min_cycle;Max_cycle;Signal;HPM_P1;HPM_P2
2022/12/04 00:01:29;;;;;;;67.47;16.40;;;;;2.70;95953.00;;;;8383223;28;20197;-83
2022/12/04 00:05:34;;;;;;;72.63;17.60;;;;;2.70;95953.00;;;;8382931;28;20211;-85
2022/12/04 00:09:37;;;;;;;76.20;18.00;;;;;2.80;95959.00;;;;8379276;28;20712;-86
2022/12/04 00:13:40;;;;;;;82.13;18.33;;;;;2.80;95964.00;;;;8379051;28;20223;-85
2022/12/04 00:17:47;;;;;;;87.10;17.63;;;;;2.80;95952.00;;;;8380649;28;20770;-85
2022/12/04 00:21:52;;;;;;;93.47;18.63;;;;;2.80;95946.00;;;;8377414;28;20256;-86
2022/12/04 00:26:00;;;;;;;86.33;18.83;;;;;2.80;95948.00;;;;8374125;28;20620;-86
2022/12/04 00:30:04;;;;;;;64.53;15.73;;;;;2.70;95953.00;;;;8369518;28;20212;-85
2022/12/04 00:34:07;;;;;;;63.63;14.77;;;;;2.70;95949.00;;;;8379649;28;20228;-84
2022/12/04 00:38:11;;;;;;;77.27;17.07;;;;;2.70;95944.00;;;;8385707;28;20218;-86
2022/12/04 00:42:14;;;;;;;59.37;14.63;;;;;2.70;95935.00;;;;8376633;28;20199;-87
2022/12/04 00:46:18;;;;;;;58.07;14.83;;;;;2.70;95933.00;;;;8379215;28;20194;-86
2022/12/04 00:50:21;;;;;;;72.53;16.23;;;;;2.70;95922.00;;;;8377822;28;20295;-86
2022/12/04 00:54:26;;;;;;;67.47;16.53;;;;;2.70;95932.00;;;;8377976;28;20237;-87
2022/12/04 00:58:29;;;;;;;62.37;15.03;;;;;2.70;95949.00;;;;8379658;28;20583;-87
2022/12/04 01:02:32;;;;;;;75.40;17.27;;;;;2.80;95937.00;;;;8378592;28;20341;-89
2022/12/04 01:06:35;;;;;;;51.67;12.90;;;;;2.80;95933.00;;;;8378670;28;20204;-85
2022/12/04 01:10:41;;;;;;;58.90;16.13;;;;;2.80;95927.00;;;;8379812;28;20228;-86
2022/12/04 01:14:44;;;;;;;55.77;13.90;;;;;2.80;95922.00;;;;8379858;28;20708;-90
2022/12/04 01:18:48;;;;;;;43.43;11.10;;;;;2.80;95925.00;;;;8382115;28;20191;-85
2022/12/04 01:22:51;;;;;;;77.77;17.80;;;;;2.80;95922.00;;;;8380642;28;20678;-85
2022/12/04 01:26:56;;;;;;;66.43;15.30;;;;;2.80;95920.00;;;;8378851;28;20211;-85
2022/12/04 01:31:01;;;;;;;74.97;16.63;;;;;2.80;95917.00;;;;8382570;28;20674;-85
2022/12/04 01:35:05;;;;;;;76.23;16.27;;;;;2.80;95921.00;;;;8379775;28;20227;-85
2022/12/04 01:39:08;;;;;;;73.33;16.07;;;;;2.80;95921.00;;;;8379689;28;20786;-87
2022/12/04 01:43:13;;;;;;;73.53;17.03;;;;;2.80;95922.00;;;;8385616;28;20199;-85
2022/12/04 01:47:16;;;;;;;35.33;9.80;;;;;2.80;95916.00;;;;8388873;28;20198;-86
2022/12/04 01:51:22;;;;;;;62.67;14.83;;;;;2.80;95921.00;;;;8389487;28;20273;-86
2022/12/04 01:55:26;;;;;;;79.97;18.33;;;;;2.80;95916.00;;;;8389137;28;20814;-87
2022/12/04 01:59:35;;;;;;;58.70;13.83;;;;;2.80;95919.00;;;;8383366;28;20309;-85
2022/12/04 02:03:39;;;;;;;59.30;14.03;;;;;2.80;95916.00;;;;8376165;28;20224;-88
2022/12/04 02:07:44;;;;;;;58.50;14.57;;;;;2.80;95914.00;;;;8381915;28;20338;-88
2022/12/04 02:11:52;;;;;;;89.80;17.80;;;;;2.80;95920.00;;;;8371672;28;20204;-92
2022/12/04 02:16:06;;;;;;;82.20;18.07;;;;;2.90;95917.00;;;;8383729;28;20252;-87
2022/12/04 02:20:28;;;;;;;68.83;16.73;;;;;2.90;95926.00;;;;8382517;28;20809;-89
2022/12/04 02:24:44;;;;;;;83.07;18.27;;;;;2.90;95925.00;;;;8384101;28;20750;-88
2022/12/04 02:28:57;;;;;;;79.27;16.40;;;;;2.90;95936.00;;;;8382166;28;20298;-88
2022/12/04 02:33:05;;;;;;;71.60;15.57;;;;;2.90;95920.00;;;;8381346;28;20287;-88
2022/12/04 02:37:12;;;;;;;88.33;16.03;;;;;2.90;95914.00;;;;8382539;28;20277;-87
2022/12/04 02:41:25;;;;;;;76.37;16.43;;;;;2.90;95902.00;;;;8386784;28;20237;-85
2022/12/04 02:45:33;;;;;;;106.43;21.23;;;;;2.90;95899.00;;;;8387497;28;20318;-87
2022/12/04 02:49:42;;;;;;;83.33;15.70;;;;;2.80;95881.00;;;;8383875;28;20222;-84
2022/12/04 02:53:49;;;;;;;99.17;19.47;;;;;2.80;95879.00;;;;8381745;28;20231;-82
2022/12/04 02:57:57;;;;;;;122.13;23.33;;;;;2.80;95861.00;;;;8384423;28;20202;-82
2022/12/04 03:02:07;;;;;;;95.50;17.27;;;;;2.80;95873.00;;;;8433284;22;20341;-82
2022/12/04 03:06:14;;;;;;;97.57;17.30;;;;;2.90;95862.00;;;;8388651;28;20226;-83
2022/12/04 03:10:26;;;;;;;56.33;12.97;;;;;2.90;95858.00;;;;8381574;28;20199;-82
2022/12/04 03:14:32;;;;;;;69.63;14.67;;;;;2.90;95851.00;;;;8384110;28;20227;-84
2022/12/04 03:18:42;;;;;;;63.30;11.97;;;;;2.90;95857.00;;;;8384709;28;20675;-83
2022/12/04 03:22:50;;;;;;;67.97;16.33;;;;;2.90;95862.00;;;;8386831;28;20660;-83
2022/12/04 03:27:00;;;;;;;94.43;18.23;;;;;2.80;95860.00;;;;8382565;28;20218;-80
2022/12/04 03:31:07;;;;;;;73.37;15.20;;;;;2.90;95851.00;;;;8383734;28;20233;-80
2022/12/04 03:35:18;;;;;;;80.83;15.77;;;;;2.90;95853.00;;;;8378565;28;20688;-80
2022/12/04 03:39:26;;;;;;;105.67;20.90;;;;;2.90;95840.00;;;;8378028;28;20204;-81
2022/12/04 03:43:35;;;;;;;98.20;18.00;;;;;2.90;95846.00;;;;8381697;28;20200;-80
2022/12/04 03:47:43;;;;;;;87.93;16.53;;;;;2.90;95837.00;;;;8383923;28;20541;-81
2022/12/04 03:51:54;;;;;;;81.53;16.00;;;;;2.90;95825.00;;;;8378180;28;20212;-80
2022/12/04 03:56:03;;;;;;;55.13;12.27;;;;;2.90;95828.00;;;;8384729;28;20231;-81
2022/12/04 04:00:10;;;;;;;47.67;10.57;;;;;2.90;95816.00;;;;8382707;28;20680;-80
2022/12/04 04:04:16;;;;;;;65.40;15.30;;;;;2.90;95814.00;;;;8383743;28;20654;-80
2022/12/04 04:08:32;;;;;;;72.47;17.87;;;;;2.90;95821.00;;;;8379282;28;20669;-80
2022/12/04 04:12:40;;;;;;;41.27;11.20;;;;;2.90;95826.00;;;;8385660;28;20222;-80
2022/12/04 04:25:31;;;;;;;73.90;14.40;;;;;2.90;95820.00;;;;8381948;28;20205;-79
2022/12/04 04:29:34;;;;;;;78.13;15.07;;;;;2.90;95826.00;;;;8382352;28;20196;-79
2022/12/04 04:33:47;;;;;;;76.70;16.13;;;;;2.90;95835.00;;;;8380655;28;20295;-79
2022/12/04 04:37:57;;;;;;;84.03;18.60;;;;;3.00;95849.00;;;;8381697;28;20252;-79
2022/12/04 04:42:11;;;;;;;92.63;19.00;;;;;3.00;95851.00;;;;8376423;28;20203;-79
2022/12/04 04:46:19;;;;;;;87.27;17.83;;;;;3.00;95853.00;;;;8383335;28;20199;-78
2022/12/04 04:50:23;;;;;;;92.17;17.10;;;;;3.00;95832.00;;;;8381500;28;20212;-78
2022/12/04 04:54:29;;;;;;;88.00;18.30;;;;;3.00;95840.00;;;;8380907;28;20296;-79
2022/12/04 04:58:34;;;;;;;80.57;17.70;;;;;3.00;95850.00;;;;8379128;28;20259;-79
2022/12/04 05:02:37;;;;;;;88.70;17.43;;;;;3.00;95841.00;;;;8378544;28;20235;-78
2022/12/04 05:06:40;;;;;;;76.97;17.53;;;;;3.00;95838.00;;;;8376968;28;20208;-78
2022/12/04 05:10:43;;;;;;;51.93;12.13;;;;;3.00;95836.00;;;;8378342;28;20198;-79
2022/12/04 05:14:48;;;;;;;63.37;15.03;;;;;3.00;95835.00;;;;8376101;28;20230;-80
2022/12/04 05:23:12;;;;;;;86.03;20.63;;;;;3.00;95845.00;;;;8378844;28;20206;-79
2022/12/04 05:27:15;;;;;;;62.40;15.37;;;;;3.00;95835.00;;;;8377333;28;20230;-80
2022/12/04 05:31:19;;;;;;;51.97;12.90;;;;;3.00;95836.00;;;;8381747;28;20256;-79
2022/12/04 05:35:23;;;;;;;82.17;17.00;;;;;3.10;95844.00;;;;8339673;28;20351;-81
2022/12/04 05:39:26;;;;;;;92.50;17.90;;;;;3.10;95845.00;;;;8308366;28;20200;-80
2022/12/04 05:43:29;;;;;;;78.33;16.70;;;;;3.10;95843.00;;;;8310670;28;20208;-79
2022/12/04 05:47:38;;;;;;;91.97;18.70;;;;;3.10;95840.00;;;;8314784;28;20235;-81
2022/12/04 05:51:41;;;;;;;107.30;20.27;;;;;3.10;95844.00;;;;8310539;28;20201;-79
2022/12/04 05:55:44;;;;;;;115.13;19.40;;;;;3.10;95854.00;;;;8315948;28;20233;-80
2022/12/04 05:59:47;;;;;;;95.87;18.03;;;;;3.10;95854.00;;;;8318681;28;20933;-81
2022/12/04 06:03:52;;;;;;;90.60;17.53;;;;;3.20;95860.00;;;;8320698;28;20236;-82
2022/12/04 06:07:55;;;;;;;81.63;16.73;;;;;3.20;95866.00;;;;8318005;28;20717;-83
2022/12/04 06:11:59;;;;;;;66.63;13.90;;;;;3.20;95856.00;;;;8319443;28;20208;-81
2022/12/04 06:16:02;;;;;;;86.63;18.43;;;;;3.20;95865.00;;;;8320364;28;20705;-81
2022/12/04 06:20:08;;;;;;;78.50;16.53;;;;;3.20;95852.00;;;;8320978;28;20320;-81
2022/12/04 06:24:15;;;;;;;88.03;16.17;;;;;3.20;95849.00;;;;8319679;28;20223;-80
2022/12/04 06:28:19;;;;;;;89.17;17.73;;;;;3.20;95857.00;;;;8318524;28;20699;-79
2022/12/04 06:32:22;;;;;;;81.80;16.43;;;;;3.20;95863.00;;;;8314149;28;20271;-80
2022/12/04 06:36:26;;;;;;;104.80;20.07;;;;;3.30;95844.00;;;;8319608;28;20224;-81
2022/12/04 06:40:30;;;;;;;92.33;17.60;;;;;3.30;95855.00;;;;8315425;28;20203;-81
2022/12/04 06:44:33;;;;;;;87.53;17.00;;;;;3.30;95852.00;;;;8316190;28;20244;-81
2022/12/04 06:48:37;;;;;;;103.67;18.03;;;;;3.30;95857.00;;;;8314731;28;20220;-80
2022/12/04 06:52:41;;;;;;;112.70;19.23;;;;;3.30;95854.00;;;;8315228;28;20203;-80
2022/12/04 06:56:45;;;;;;;143.43;22.53;;;;;3.30;95848.00;;;;8301767;28;20226;-80
2022/12/04 07:00:49;;;;;;;83.73;15.00;;;;;3.30;95848.00;;;;8311128;28;20717;-80
2022/12/04 07:04:56;;;;;;;122.67;19.20;;;;;3.30;95824.00;;;;8305354;28;20232;-83
2022/12/04 07:09:03;;;;;;;67.97;12.43;;;;;3.30;95830.00;;;;8313806;28;20207;-81
2022/12/04 07:13:07;;;;;;;135.97;17.63;;;;;3.30;95834.00;;;;8313567;28;20206;-81
2022/12/04 07:17:11;;;;;;;86.10;14.93;;;;;3.40;95835.00;;;;8319627;28;20237;-82
2022/12/04 07:21:17;;;;;;;88.20;13.33;;;;;3.40;95826.00;;;;8310915;28;20206;-80
2022/12/04 07:25:22;;;;;;;110.37;17.23;;;;;3.40;95821.00;;;;8311133;28;21129;-81
2022/12/04 07:29:26;;;;;;;103.33;17.33;;;;;3.40;95828.00;;;;8312692;28;20205;-80
2022/12/04 07:33:29;;;;;;;115.37;19.67;;;;;3.40;95827.00;;;;8313018;28;20242;-80
2022/12/04 07:43:02;;;;;;;105.17;17.80;;;;;3.50;95844.00;;;;8333517;28;20630;-81
2022/12/04 07:52:18;;;;;;;69.93;13.53;;;;;3.60;95844.00;;;;8334302;28;20197;-79
2022/12/04 07:56:55;;;;;;;104.77;19.70;;;;;3.70;95840.00;;;;8332923;28;20665;-77
2022/12/04 08:01:33;;;;;;;43.23;11.00;;;;;3.70;95834.00;;;;8333370;28;20269;-76
2022/12/04 08:06:07;;;;;;;82.93;18.40;;;;;3.70;95846.00;;;;8333005;28;20686;-76
2022/12/04 08:10:44;;;;;;;79.53;15.93;;;;;3.80;95844.00;;;;8333202;28;20259;-75
2022/12/04 08:15:21;;;;;;;67.30;15.97;;;;;3.90;95862.00;;;;8332405;28;20627;-75
2022/12/04 08:20:06;;;;;;;74.67;18.47;;;;;4.00;95874.00;;;;8332495;28;20198;-74
2022/12/04 08:24:37;;;;;;;60.13;13.50;;;;;4.00;95869.00;;;;8332949;28;20209;-74
2022/12/04 08:28:41;;;;;;;88.07;21.13;;;;;4.10;95853.00;;;;8331592;28;20291;-75
2022/12/04 08:32:44;;;;;;;54.10;15.47;;;;;4.10;95853.00;;;;8332795;28;20622;-75
2022/12/04 08:37:22;;;;;;;75.97;17.83;;;;;4.20;95851.00;;;;8332179;28;20229;-75
2022/12/04 08:41:56;;;;;;;65.27;16.27;;;;;4.20;95851.00;;;;8331564;28;20201;-75
2022/12/04 08:46:33;;;;;;;63.70;15.73;;;;;4.30;95871.00;;;;8333127;28;20250;-75
2022/12/04 08:51:07;;;;;;;50.57;14.13;;;;;4.40;95858.00;;;;8331603;28;20634;-75
2022/12/04 08:55:46;;;;;;;58.47;16.70;;;;;4.40;95853.00;;;;8332620;28;20630;-74
2022/12/04 08:59:49;;;;;;;73.80;20.73;;;;;4.50;95846.00;;;;8332220;28;20202;-74
2022/12/04 09:03:52;;;;;;;71.50;17.13;;;;;4.50;95847.00;;;;8331134;28;20221;-74
2022/12/04 09:07:55;;;;;;;58.43;16.40;;;;;4.50;95845.00;;;;8330317;28;20220;-75
2022/12/04 09:12:34;;;;;;;51.83;13.27;;;;;4.50;95864.00;;;;8326948;28;20193;-73
2022/12/04 09:17:11;;;;;;;62.40;16.67;;;;;4.50;95878.00;;;;8329673;28;20229;-74
2022/12/04 09:21:48;;;;;;;67.87;16.53;;;;;4.60;95865.00;;;;8329089;28;20201;-74
2022/12/04 09:26:26;;;;;;;64.80;16.13;;;;;4.70;95866.00;;;;8331999;28;20224;-74
2022/12/04 09:31:05;;;;;;;61.33;15.67;;;;;4.80;95882.00;;;;8331932;28;20641;-74
2022/12/04 09:35:39;;;;;;;44.70;12.10;;;;;5.00;95868.00;;;;8337712;28;20198;-74
2022/12/04 09:40:22;;;;;;;54.30;14.40;;;;;5.10;95857.00;;;;8335242;28;20267;-75
2022/12/04 09:44:53;;;;;;;60.50;16.37;;;;;5.20;95857.00;;;;8336566;28;20239;-78
2022/12/04 09:49:02;;;;;;;57.27;15.57;;;;;5.20;95851.00;;;;8336363;28;20181;-79
2022/12/04 09:53:33;;;;;;;55.10;15.33;;;;;5.30;95843.00;;;;8339783;28;20216;-78
2022/12/04 09:58:12;;;;;;;38.40;12.27;;;;;5.40;95842.00;;;;8336698;28;20289;-78
2022/12/04 10:02:51;;;;;;;36.73;11.97;;;;;5.60;95833.00;;;;8335980;28;20220;-75
2022/12/04 10:07:28;;;;;;;44.27;13.67;;;;;5.40;95829.00;;;;8337940;28;20213;-75
2022/12/04 10:12:10;;;;;;;40.43;12.47;;;;;5.40;95819.00;;;;8336754;28;20213;-75
2022/12/04 10:16:43;;;;;;;45.40;13.73;;;;;5.30;95814.00;;;;8336499;28;20335;-74
2022/12/04 10:21:29;;;;;;;40.57;11.47;;;;;5.40;95807.00;;;;8337947;28;20263;-76
2022/12/04 10:25:36;;;;;;;48.47;16.40;;;;;5.40;95804.00;;;;8321934;28;20289;-76
2022/12/04 10:29:42;;;;;;;50.83;18.03;;;;;5.50;95798.00;;;;8335835;28;20200;-76
2022/12/04 10:34:19;;;;;;;39.80;14.53;;;;;5.40;95790.00;;;;8335344;28;20254;-78
2022/12/04 10:38:31;;;;;;;53.53;15.07;;;;;5.40;95791.00;;;;8336374;28;20225;-76
2022/12/04 10:42:41;;;;;;;51.37;15.63;;;;;5.40;95786.00;;;;8334685;28;20232;-76
2022/12/04 10:47:12;;;;;;;55.17;17.13;;;;;5.40;95767.00;;;;8336305;28;20199;-76
2022/12/04 10:51:46;;;;;;;29.97;10.30;;;;;5.50;95754.00;;;;8335729;28;20189;-76
2022/12/04 10:55:49;;;;;;;46.63;14.83;;;;;5.60;95752.00;;;;8335489;28;20189;-76
2022/12/04 10:59:55;;;;;;;48.93;15.67;;;;;5.70;95762.00;;;;8336216;28;20229;-76
2022/12/04 11:04:02;;;;;;;54.87;15.80;;;;;5.80;95765.00;;;;8335109;28;20693;-76
2022/12/04 11:08:07;;;;;;;48.50;14.23;;;;;5.90;95770.00;;;;8336323;28;20573;-76
2022/12/04 11:12:18;;;;;;;55.53;16.90;;;;;5.90;95751.00;;;;8334902;28;20224;-76
2022/12/04 11:16:34;;;;;;;48.20;15.57;;;;;6.00;95753.00;;;;8335668;28;20259;-76
2022/12/04 11:21:00;;;;;;;42.33;14.80;;;;;6.20;95746.00;;;;8335441;28;20201;-76
2022/12/04 11:25:03;;;;;;;50.90;16.20;;;;;6.40;95740.00;;;;8335599;28;20649;-76
2022/12/04 11:29:12;;;;;;;50.40;15.87;;;;;6.40;95723.00;;;;8334063;28;20189;-76
2022/12/04 11:33:21;;;;;;;61.63;18.67;;;;;6.40;95709.00;;;;8334397;28;20200;-76
2022/12/04 11:37:27;;;;;;;38.77;13.13;;;;;6.30;95715.00;;;;8334888;28;20247;-76
2022/12/04 11:41:32;;;;;;;49.80;16.60;;;;;6.40;95722.00;;;;8334177;28;20599;-76
2022/12/04 11:45:35;;;;;;;50.67;18.40;;;;;6.50;95725.00;;;;8336129;28;20591;-76
2022/12/04 11:49:39;;;;;;;51.90;15.83;;;;;6.50;95717.00;;;;8333383;28;20201;-76
2022/12/04 11:54:22;;;;;;;55.10;18.57;;;;;6.50;95711.00;;;;8333801;28;20653;-76
2022/12/04 11:58:45;;;;;;;50.17;16.80;;;;;6.50;95711.00;;;;8334239;28;20543;-76
2022/12/04 12:03:26;;;;;;;43.63;16.30;;;;;6.70;95701.00;;;;8334489;28;20224;-76
2022/12/04 12:07:43;;;;;;;53.33;17.53;;;;;6.80;95700.00;;;;8333365;28;20236;-76
2022/12/04 12:12:09;;;;;;;46.07;15.40;;;;;6.90;95721.00;;;;8333407;28;20300;-76
2022/12/04 12:16:19;;;;;;;44.23;16.80;;;;;7.20;95726.00;;;;8333192;28;20197;-76
2022/12/04 12:20:53;;;;;;;40.93;15.30;;;;;7.40;95731.00;;;;8333306;28;20666;-76
2022/12/04 12:25:05;;;;;;;42.07;16.53;;;;;7.40;95727.00;;;;8333271;28;20198;-76
2022/12/04 12:29:39;;;;;;;46.30;17.10;;;;;7.50;95720.00;;;;8332957;28;20194;-76
2022/12/04 12:33:47;;;;;;;47.17;18.50;;;;;7.50;95702.00;;;;8332013;28;20198;-76
2022/12/04 12:37:53;;;;;;;34.73;14.37;;;;;7.40;95699.00;;;;8334094;28;20543;-75
2022/12/04 12:42:01;;;;;;;42.73;18.33;;;;;7.50;95700.00;;;;8332160;28;20239;-75
2022/12/04 12:46:34;;;;;;;39.80;15.53;;;;;7.50;95699.00;;;;8329173;28;20634;-75
2022/12/04 12:51:14;;;;;;;42.27;15.97;;;;;7.50;95696.00;;;;8330706;28;20273;-76
2022/12/04 12:55:36;;;;;;;38.50;15.88;;;;;7.60;95674.00;;;;8325980;28;20182;-75
2022/12/04 13:00:14;;;;;;;37.50;15.27;;;;;7.50;95664.00;;;;8331040;28;20221;-75
2022/12/04 13:04:45;;;;;;;35.33;13.97;;;;;7.30;95662.00;;;;8331384;28;20255;-75
2022/12/04 13:09:24;;;;;;;38.90;13.90;;;;;7.30;95654.00;;;;8327877;28;20193;-75
2022/12/04 13:13:37;;;;;;;53.10;20.33;;;;;7.30;95657.00;;;;8331237;28;20305;-76
2022/12/04 13:17:44;;;;;;;40.83;15.90;;;;;7.20;95657.00;;;;8330563;28;20225;-75
2022/12/04 13:22:23;;;;;;;39.93;14.50;;;;;7.20;95652.00;;;;8330603;28;20551;-76
2022/12/04 13:26:40;;;;;;;47.00;16.53;;;;;7.30;95654.00;;;;8331799;28;20194;-76
2022/12/04 13:30:57;;;;;;;39.17;16.13;;;;;7.20;95645.00;;;;8330686;28;20295;-76
2022/12/04 13:35:37;;;;;;;45.40;17.37;;;;;7.20;95649.00;;;;8330751;28;20296;-76
2022/12/04 13:40:04;;;;;;;45.87;16.33;;;;;7.10;95638.00;;;;8330750;28;20233;-76
2022/12/04 13:44:18;;;;;;;39.13;15.60;;;;;7.10;95640.00;;;;8331113;28;20193;-76
2022/12/04 13:48:42;;;;;;;49.20;17.80;;;;;7.00;95648.00;;;;8324368;28;20251;-76
2022/12/04 13:53:36;;;;;;;37.67;12.77;;;;;7.10;95631.00;;;;8331136;28;20225;-79
2022/12/04 13:58:00;;;;;;;50.87;18.07;;;;;7.10;95629.00;;;;8228113;28;20223;-75
2022/12/04 14:02:36;;;;;;;28.67;12.10;;;;;7.10;95620.00;;;;8229978;28;20206;-74
2022/12/04 14:12:13;;;;;;;47.27;17.53;;;;;7.00;95619.00;;;;8329326;28;20232;-78
2022/12/04 14:16:47;;;;;;;54.40;19.80;;;;;7.00;95618.00;;;;8331604;28;20236;-76
2022/12/04 14:21:26;;;;;;;35.47;14.03;;;;;7.00;95610.00;;;;8336495;28;20217;-76
2022/12/04 14:26:02;;;;;;;47.10;19.17;;;;;6.90;95627.00;;;;8335262;28;20201;-76
2022/12/04 14:30:35;;;;;;;45.87;16.20;;;;;6.90;95619.00;;;;8336839;28;20646;-76
2022/12/04 14:35:13;;;;;;;33.67;14.40;;;;;6.90;95612.00;;;;8334434;28;20228;-76
2022/12/04 14:39:52;;;;;;;47.30;19.40;;;;;6.90;95613.00;;;;8335588;28;20228;-77
2022/12/04 14:44:23;;;;;;;38.27;15.50;;;;;6.80;95611.00;;;;8336411;28;20202;-74
2022/12/04 14:49:06;;;;;;;45.63;17.00;;;;;6.80;95604.00;;;;8336563;28;20202;-74
2022/12/04 14:53:22;;;;;;;43.90;17.70;;;;;6.80;95601.00;;;;8335879;28;20193;-74
2022/12/04 14:57:52;;;;;;;46.33;20.53;;;;;6.70;95607.00;;;;8335752;28;20190;-74
2022/12/04 15:01:56;;;;;;;47.93;19.47;;;;;6.70;95610.00;;;;8336094;28;20198;-74
2022/12/04 15:06:03;;;;;;;49.07;17.30;;;;;6.70;95607.00;;;;8334839;28;20205;-74
2022/12/04 15:14:42;;;;;;;50.37;19.40;;;;;6.80;95612.00;;;;8334986;28;20190;-74
2022/12/04 15:19:16;;;;;;;45.17;18.03;;;;;6.70;95609.00;;;;8334540;28;20227;-74
2022/12/04 15:23:25;;;;;;;47.23;17.00;;;;;6.70;95617.00;;;;8336000;28;20203;-74
2022/12/04 15:27:28;;;;;;;48.23;19.83;;;;;6.80;95626.00;;;;8333566;28;20193;-74
2022/12/04 15:31:42;;;;;;;45.43;17.03;;;;;6.70;95627.00;;;;8335498;28;20194;-74
2022/12/04 15:36:14;;;;;;;44.90;19.13;;;;;6.70;95636.00;;;;8334431;28;20193;-74
2022/12/04 15:40:22;;;;;;;45.63;18.27;;;;;6.60;95645.00;;;;8332104;28;20232;-74
2022/12/04 15:44:28;;;;;;;48.00;20.40;;;;;6.60;95645.00;;;;8334289;28;20208;-74
2022/12/04 15:49:07;;;;;;;42.07;16.27;;;;;6.50;95652.00;;;;8330300;28;20197;-73
2022/12/04 15:53:16;;;;;;;43.23;17.27;;;;;6.50;95653.00;;;;8334591;28;20251;-75
2022/12/04 15:57:51;;;;;;;54.47;21.40;;;;;6.50;95655.00;;;;8333962;28;20194;-76
2022/12/04 16:01:54;;;;;;;44.33;17.23;;;;;6.50;95655.00;;;;8333984;28;20197;-75
2022/12/04 16:06:14;;;;;;;40.90;16.07;;;;;6.40;95665.00;;;;8334119;28;20205;-75
2022/12/04 16:10:22;;;;;;;42.87;16.00;;;;;6.50;95665.00;;;;8334604;28;20202;-75
2022/12/04 16:14:25;;;;;;;45.93;18.90;;;;;6.50;95672.00;;;;8334088;28;20641;-76
2022/12/04 16:18:29;;;;;;;44.30;18.47;;;;;6.50;95668.00;;;;8332792;28;20213;-75
2022/12/04 16:22:33;;;;;;;44.70;18.27;;;;;6.50;95665.00;;;;8333185;28;20197;-75
2022/12/04 16:27:11;;;;;;;47.73;18.60;;;;;6.50;95665.00;;;;8332599;28;20196;-75
2022/12/04 16:31:15;;;;;;;43.40;17.60;;;;;6.50;95667.00;;;;8332338;28;20200;-75
2022/12/04 16:35:18;;;;;;;43.87;17.17;;;;;6.50;95666.00;;;;8331108;28;20535;-75
2022/12/04 16:39:56;;;;;;;54.63;22.20;;;;;6.40;95649.00;;;;8325639;28;20283;-75
2022/12/04 16:44:35;;;;;;;29.87;12.90;;;;;6.40;95640.00;;;;8327707;28;20208;-75
2022/12/04 16:48:38;;;;;;;46.83;17.93;;;;;6.40;95644.00;;;;8331500;28;20555;-75
2022/12/04 16:53:16;;;;;;;28.30;12.33;;;;;6.30;95643.00;;;;8330176;28;20198;-75
2022/12/04 16:57:52;;;;;;;42.13;16.60;;;;;6.30;95644.00;;;;8331878;28;20248;-73
2022/12/04 17:02:26;;;;;;;46.83;19.90;;;;;6.30;95646.00;;;;8331480;28;20221;-72
2022/12/04 17:12:01;;;;;;;46.80;17.57;;;;;6.30;95660.00;;;;8331911;28;20536;-73
2022/12/04 17:16:42;;;;;;;48.83;18.20;;;;;6.30;95656.00;;;;8332175;28;20201;-73
2022/12/04 17:20:45;;;;;;;44.80;17.27;;;;;6.30;95657.00;;;;8331270;28;20232;-73
2022/12/04 17:25:22;;;;;;;39.80;17.23;;;;;6.40;95662.00;;;;8332409;28;20193;-73
2022/12/04 17:29:27;;;;;;;27.73;12.10;;;;;6.30;95668.00;;;;8330939;28;20205;-73
2022/12/04 17:33:32;;;;;;;42.17;16.53;;;;;6.30;95679.00;;;;8331899;28;20198;-73
2022/12/04 17:37:37;;;;;;;38.90;16.47;;;;;6.40;95671.00;;;;8331998;28;20266;-73
2022/12/04 17:42:16;;;;;;;59.90;20.80;;;;;6.30;95667.00;;;;8330987;28;20388;-73
2022/12/04 17:46:23;;;;;;;50.97;18.47;;;;;6.30;95669.00;;;;8330579;28;20213;-75
2022/12/04 17:50:27;;;;;;;51.47;19.27;;;;;6.30;95679.00;;;;8331309;28;20201;-75
2022/12/04 17:54:31;;;;;;;62.20;23.87;;;;;6.30;95672.00;;;;8335530;28;20579;-76
2022/12/04 17:59:08;;;;;;;48.37;17.50;;;;;6.30;95676.00;;;;8334942;28;20204;-75
2022/12/04 18:03:11;;;;;;;60.93;23.23;;;;;6.30;95673.00;;;;8336651;28;20681;-73
2022/12/04 18:07:47;;;;;;;56.67;20.63;;;;;6.20;95676.00;;;;8335308;28;20262;-72
2022/12/04 18:11:51;;;;;;;55.97;18.93;;;;;6.20;95680.00;;;;8337745;28;20240;-74
2022/12/04 18:16:28;;;;;;;52.67;18.33;;;;;6.20;95679.00;;;;8336925;28;20193;-73
2022/12/04 18:21:06;;;;;;;54.07;18.97;;;;;6.20;95681.00;;;;8332201;28;20271;-72
2022/12/04 18:25:53;;;;;;;49.50;18.17;;;;;6.20;95680.00;;;;8338150;28;20224;-73
2022/12/04 18:30:18;;;;;;;59.50;21.17;;;;;6.20;95683.00;;;;8335476;28;20263;-74
2022/12/04 18:34:55;;;;;;;60.13;21.37;;;;;6.30;95689.00;;;;8336331;28;20534;-73
2022/12/04 18:39:32;;;;;;;57.47;20.13;;;;;6.30;95692.00;;;;8335778;28;20248;-73
2022/12/04 18:44:10;;;;;;;61.70;21.33;;;;;6.30;95684.00;;;;8336818;28;20244;-72
2022/12/04 18:48:45;;;;;;;50.20;18.13;;;;;6.30;95688.00;;;;8335587;28;20201;-73
2022/12/04 18:53:23;;;;;;;47.13;17.63;;;;;6.30;95691.00;;;;8336347;28;20251;-73
2022/12/04 18:57:57;;;;;;;55.93;20.27;;;;;6.30;95686.00;;;;8334592;28;20527;-73
2022/12/04 19:02:02;;;;;;;58.80;20.97;;;;;6.30;95692.00;;;;8335141;28;20659;-74
2022/12/04 19:06:06;;;;;;;46.43;18.40;;;;;6.30;95693.00;;;;8334739;28;20205;-73
2022/12/04 19:10:10;;;;;;;51.73;19.77;;;;;6.30;95695.00;;;;8335733;28;20202;-73
2022/12/04 19:14:44;;;;;;;73.60;25.87;;;;;6.30;95695.00;;;;8335496;28;20547;-73
2022/12/04 19:18:49;;;;;;;62.60;21.63;;;;;6.30;95702.00;;;;8335638;28;20198;-72
2022/12/04 19:22:52;;;;;;;66.33;22.57;;;;;6.30;95710.00;;;;8334616;28;20225;-72
2022/12/04 19:27:29;;;;;;;59.97;20.67;;;;;6.30;95703.00;;;;8335831;28;20193;-73
2022/12/04 19:31:35;;;;;;;66.83;24.83;;;;;6.30;95688.00;;;;8334562;28;20244;-72
2022/12/04 19:36:12;;;;;;;56.73;20.57;;;;;6.20;95695.00;;;;8334307;28;20200;-73
2022/12/04 19:40:15;;;;;;;66.73;22.43;;;;;6.10;95699.00;;;;8334945;28;20225;-73
2022/12/04 19:44:20;;;;;;;70.43;22.30;;;;;6.10;95701.00;;;;8333569;28;20197;-73
2022/12/04 19:48:57;;;;;;;64.43;20.63;;;;;6.10;95708.00;;;;8334326;28;20607;-73
2022/12/04 19:53:01;;;;;;;54.93;18.77;;;;;6.10;95708.00;;;;8334432;28;20622;-73
2022/12/04 19:57:05;;;;;;;63.77;22.10;;;;;6.20;95703.00;;;;8334400;28;20224;-73
2022/12/04 20:01:50;;;;;;;65.60;22.10;;;;;6.10;95704.00;;;;8333590;28;20697;-73
2022/12/04 20:06:28;;;;;;;57.77;18.43;;;;;6.10;95714.00;;;;8333592;28;20217;-73
2022/12/04 20:11:04;;;;;;;69.90;24.73;;;;;6.10;95711.00;;;;8333019;28;20205;-72
2022/12/04 20:15:08;;;;;;;68.07;22.37;;;;;6.10;95730.00;;;;8333490;28;20205;-73
2022/12/04 20:19:45;;;;;;;58.23;20.03;;;;;6.10;95726.00;;;;8332972;28;20197;-72
2022/12/04 20:24:22;;;;;;;71.70;23.33;;;;;6.10;95728.00;;;;8333509;28;20201;-73
2022/12/04 20:29:00;;;;;;;73.73;23.87;;;;;6.20;95742.00;;;;8332730;28;20194;-72
2022/12/04 20:33:34;;;;;;;56.37;22.33;;;;;6.20;95748.00;;;;8332987;28;20216;-73
2022/12/04 20:38:12;;;;;;;74.27;24.03;;;;;6.20;95758.00;;;;8332397;28;20196;-73
2022/12/04 20:42:15;;;;;;;70.57;23.90;;;;;6.20;95764.00;;;;8332322;28;20224;-72
2022/12/04 20:46:24;;;;;;;75.03;24.13;;;;;6.20;95762.00;;;;8332921;28;20665;-72
2022/12/04 20:50:55;;;;;;;60.63;21.70;;;;;6.20;95774.00;;;;8332072;28;20205;-71
2022/12/04 20:55:32;;;;;;;73.60;24.27;;;;;6.20;95763.00;;;;8332420;28;20197;-71
2022/12/04 21:00:07;;;;;;;75.93;25.27;;;;;6.20;95771.00;;;;8331821;28;20300;-70
2022/12/04 21:04:16;;;;;;;72.87;23.27;;;;;6.20;95768.00;;;;8332719;28;20626;-71
2022/12/04 21:08:55;;;;;;;64.87;21.87;;;;;6.20;95782.00;;;;8332378;28;20586;-71
2022/12/04 21:18:00;;;;;;;69.87;25.23;;;;;6.20;95777.00;;;;8332438;28;20255;-70
2022/12/04 21:22:05;;;;;;;83.80;26.37;;;;;6.30;95790.00;;;;8332257;28;20579;-71
2022/12/04 21:26:08;;;;;;;71.87;24.10;;;;;6.30;95795.00;;;;8331056;28;20201;-71
2022/12/04 21:30:12;;;;;;;65.80;23.77;;;;;6.30;95799.00;;;;8331084;28;20193;-72
2022/12/04 21:34:46;;;;;;;75.77;24.63;;;;;6.30;95796.00;;;;8332275;28;20634;-71
2022/12/04 21:38:51;;;;;;;71.47;24.47;;;;;6.40;95802.00;;;;8330730;28;20194;-71
2022/12/04 21:43:29;;;;;;;73.33;24.00;;;;;6.40;95812.00;;;;8331253;28;20233;-71
2022/12/04 21:48:06;;;;;;;76.87;24.37;;;;;6.40;95807.00;;;;8332101;28;20627;-71
2022/12/04 21:52:43;;;;;;;71.93;25.10;;;;;6.40;95808.00;;;;8331015;28;20193;-73